createdAt,value
2024-02-27T00:04:23.192Z,6.30
2024-02-27T00:09:26.168Z,6.20
2024-02-27T00:14:28.137Z,6.20
2024-02-27T00:19:31.057Z,6.00
2024-02-27T00:24:33.513Z,5.90
2024-02-27T00:29:35.691Z,5.80
2024-02-27T00:34:38.386Z,5.80
2024-02-27T00:39:40.651Z,5.60
2024-02-27T00:44:48.627Z,5.60
2024-02-27T00:49:51.077Z,5.50
2024-02-27T00:54:53.792Z,5.50
2024-02-27T00:59:56.483Z,5.40
2024-02-27T01:04:58.981Z,5.40
2024-02-27T01:10:02.235Z,5.30
2024-02-27T01:15:05.105Z,5.30
2024-02-27T01:20:08.073Z,5.20
2024-02-27T01:25:13.538Z,5.20
2024-02-27T01:30:16.030Z,5.20
2024-02-27T01:35:19.996Z,5.20
2024-02-27T01:40:22.773Z,5.10
2024-02-27T01:45:26.435Z,5.00
2024-02-27T01:50:28.882Z,5.00
2024-02-27T01:55:30.868Z,4.90
2024-02-27T02:00:33.276Z,5.00
2024-02-27T02:05:36.128Z,4.80
2024-02-27T02:10:38.148Z,4.70
2024-02-27T02:15:40.315Z,4.70
2024-02-27T02:20:42.433Z,4.70
2024-02-27T02:25:45.199Z,4.70
2024-02-27T02:30:47.524Z,4.80
2024-02-27T02:35:49.984Z,4.80
2024-02-27T02:40:51.958Z,4.80
2024-02-27T02:45:54.248Z,4.70
2024-02-27T02:50:57.425Z,4.60
2024-02-27T02:55:59.720Z,4.50
2024-02-27T03:01:01.678Z,4.40
2024-02-27T03:06:03.763Z,4.40
2024-02-27T03:11:06.007Z,4.40
2024-02-27T03:16:09.303Z,4.30
2024-02-27T03:21:11.981Z,4.20
2024-02-27T03:26:17.737Z,4.10
2024-02-27T03:31:20.270Z,4.10
2024-02-27T03:36:22.785Z,4.20
2024-02-27T03:41:24.812Z,4.20
2024-02-27T03:46:26.997Z,4.20
2024-02-27T03:51:29.509Z,4.10
2024-02-27T03:56:32.111Z,4.00
2024-02-27T04:01:34.637Z,4.00
2024-02-27T04:06:37.358Z,3.80
2024-02-27T04:11:39.324Z,3.80
2024-02-27T04:16:43.563Z,3.70
2024-02-27T04:21:46.763Z,3.70
2024-02-27T04:26:49.212Z,3.70
2024-02-27T04:31:51.381Z,3.80
2024-02-27T04:36:53.286Z,3.80
2024-02-27T04:41:55.495Z,3.70
2024-02-27T04:46:57.420Z,3.70
2024-02-27T04:51:59.632Z,3.60
2024-02-27T04:57:01.628Z,3.60
2024-02-27T05:02:05.147Z,3.60
2024-02-27T05:07:07.235Z,3.60
2024-02-27T05:12:09.843Z,3.40
2024-02-27T05:17:11.804Z,3.40
2024-02-27T05:22:14.631Z,3.30
2024-02-27T05:27:19.003Z,3.30
2024-02-27T05:32:21.999Z,3.30
2024-02-27T05:37:23.889Z,3.30
2024-02-27T05:42:25.814Z,3.20
2024-02-27T05:47:28.001Z,3.20
2024-02-27T05:52:30.483Z,3.10
2024-02-27T05:57:33.186Z,3.00
2024-02-27T06:02:35.360Z,3.00
2024-02-27T06:07:38.340Z,3.10
2024-02-27T06:12:40.704Z,3.20
2024-02-27T06:17:42.722Z,3.40
2024-02-27T06:22:44.808Z,3.50
2024-02-27T06:27:49.472Z,3.80
2024-02-27T06:32:51.838Z,4.00
2024-02-27T06:37:53.791Z,4.30
2024-02-27T06:42:56.205Z,4.50
2024-02-27T06:47:58.278Z,4.90
2024-02-27T06:53:01.098Z,5.40
2024-02-27T06:58:03.934Z,5.90
2024-02-27T07:03:06.218Z,6.50
2024-02-27T07:08:10.999Z,7.00
2024-02-27T07:13:13.456Z,7.40
2024-02-27T07:18:17.714Z,7.90
2024-02-27T07:23:20.553Z,8.50
2024-02-27T07:28:27.300Z,9.30
2024-02-27T07:33:32.633Z,9.80
2024-02-27T07:38:36.061Z,10.20
2024-02-27T07:43:38.257Z,10.60
2024-02-27T07:48:46.780Z,11.10
2024-02-27T07:53:48.685Z,11.30
2024-02-27T07:58:50.658Z,11.30
2024-02-27T08:03:53.829Z,11.40
2024-02-27T08:08:56.925Z,11.40
2024-02-27T08:13:59.232Z,11.80
2024-02-27T08:19:06.107Z,12.00
2024-02-27T08:24:13.360Z,12.40
2024-02-27T08:29:16.638Z,12.70
2024-02-27T08:34:19.715Z,13.00
2024-02-27T08:39:22.136Z,13.10
2024-02-27T08:44:24.538Z,13.10
2024-02-27T08:49:26.857Z,13.20
2024-02-27T08:54:29.959Z,13.40
2024-02-27T08:59:32.387Z,13.40
2024-02-27T09:04:34.625Z,13.50
2024-02-27T09:09:37.184Z,13.40
2024-02-27T09:14:40.302Z,13.50
2024-02-27T09:19:42.393Z,13.60
2024-02-27T09:24:45.663Z,13.80
2024-02-27T09:29:47.607Z,13.80
2024-02-27T09:34:51.123Z,13.80
2024-02-27T09:39:59.533Z,14.10
2024-02-27T09:45:05.754Z,14.30
2024-02-27T09:50:09.515Z,14.40
2024-02-27T09:55:12.236Z,14.60
2024-02-27T10:00:16.601Z,14.40
2024-02-27T10:05:21.783Z,14.50
2024-02-27T10:10:24.174Z,14.40
2024-02-27T10:15:31.550Z,14.20
2024-02-27T10:20:34.800Z,14.00
2024-02-27T10:25:37.307Z,13.80
2024-02-27T10:30:40.688Z,13.70
2024-02-27T10:35:43.753Z,13.50
2024-02-27T10:40:46.175Z,13.40
2024-02-27T10:45:51.561Z,13.30
2024-02-27T10:50:56.064Z,13.10
2024-02-27T10:55:59.174Z,13.10
2024-02-27T11:01:03.917Z,13.20
2024-02-27T11:06:06.917Z,13.20
2024-02-27T11:11:09.142Z,13.20
2024-02-27T11:16:12.656Z,13.30
2024-02-27T11:21:15.833Z,13.20
2024-02-27T11:26:19.009Z,13.10
2024-02-27T11:31:22.524Z,13.20
2024-02-27T11:36:25.386Z,13.20
2024-02-27T11:41:28.494Z,13.30
2024-02-27T11:46:31.524Z,13.50
2024-02-27T11:51:37.447Z,13.60
2024-02-27T11:56:46.627Z,13.70
2024-02-27T12:02:07.565Z,13.70
2024-02-27T12:07:10.273Z,13.70
2024-02-27T12:12:12.669Z,13.70
2024-02-27T12:17:16.851Z,13.80
2024-02-27T12:22:18.912Z,13.90
2024-02-27T12:27:22.309Z,13.90
2024-02-27T12:32:25.585Z,13.90
2024-02-27T12:37:28.917Z,14.00
2024-02-27T12:42:35.135Z,14.20
2024-02-27T12:47:40.119Z,14.40
2024-02-27T12:52:52.658Z,14.50
2024-02-27T12:58:00.421Z,14.50
2024-02-27T13:03:04.495Z,14.50
2024-02-27T13:13:33.374Z,14.80
2024-02-27T13:18:38.906Z,14.90
2024-02-27T13:23:40.948Z,14.80
2024-02-27T13:28:43.149Z,14.50
2024-02-27T13:33:45.490Z,14.20
2024-02-27T13:38:47.571Z,14.00
2024-02-27T13:43:49.873Z,14.00
2024-02-27T13:48:53.541Z,13.90
2024-02-27T13:53:55.697Z,14.00
2024-02-27T13:58:57.645Z,13.70
2024-02-27T14:04:02.945Z,13.80
2024-02-27T14:09:05.565Z,13.70
2024-02-27T14:14:17.629Z,13.70
2024-02-27T14:19:23.546Z,13.70
2024-02-27T14:24:27.017Z,13.60
2024-02-27T14:29:41.472Z,13.60
2024-02-27T14:34:43.486Z,13.60
2024-02-27T14:39:46.029Z,13.60
2024-02-27T14:44:48.193Z,13.50
2024-02-27T14:49:50.462Z,13.50
2024-02-27T14:55:00.918Z,13.50
2024-02-27T15:00:06.406Z,13.50
2024-02-27T15:05:09.074Z,13.40
2024-02-27T15:10:11.026Z,13.40
2024-02-27T15:15:13.526Z,13.30
2024-02-27T15:20:16.157Z,13.40
2024-02-27T15:25:18.186Z,13.40
2024-02-27T15:30:22.194Z,13.30
2024-02-27T15:35:27.411Z,13.30
2024-02-27T15:40:29.731Z,13.30
2024-02-27T15:45:32.009Z,13.30
2024-02-27T15:50:34.037Z,13.20
2024-02-27T15:55:36.100Z,13.20
2024-02-27T16:00:39.256Z,13.10
2024-02-27T16:05:45.158Z,13.10
2024-02-27T16:10:47.250Z,13.00
2024-02-27T16:15:51.240Z,12.90
2024-02-27T16:20:54.604Z,12.90
2024-02-27T16:25:57.935Z,12.90
2024-02-27T16:31:00.292Z,12.90
2024-02-27T16:36:05.338Z,12.80
2024-02-27T16:41:08.293Z,12.80
2024-02-27T16:46:10.333Z,12.70
2024-02-27T16:51:12.306Z,12.70
2024-02-27T16:56:14.283Z,12.60
2024-02-27T17:01:16.494Z,12.60
2024-02-27T17:06:19.150Z,12.50
2024-02-27T17:11:21.594Z,12.50
2024-02-27T17:16:24.468Z,12.40
2024-02-27T17:21:26.881Z,12.40
2024-02-27T17:26:28.815Z,12.40
2024-02-27T17:31:31.161Z,12.30
2024-02-27T17:36:40.911Z,12.30
2024-02-27T17:41:43.609Z,12.30
2024-02-27T17:46:45.898Z,12.20
2024-02-27T17:51:47.896Z,12.20
2024-02-27T17:56:50.871Z,12.00
2024-02-27T18:01:53.676Z,12.00
2024-02-27T18:06:57.952Z,11.90
2024-02-27T18:12:00.285Z,11.80
2024-02-27T18:17:02.616Z,11.80
2024-02-27T18:22:05.536Z,11.70
2024-02-27T18:27:08.017Z,11.70
2024-02-27T18:32:10.144Z,11.70
2024-02-27T18:37:12.553Z,11.70
2024-02-27T18:42:15.036Z,11.90
2024-02-27T18:47:19.014Z,11.90
2024-02-27T18:52:21.272Z,11.90
2024-02-27T18:57:23.301Z,11.90
2024-02-27T19:02:25.601Z,11.80
2024-02-27T19:07:30.385Z,11.70
2024-02-27T19:12:32.673Z,11.60
2024-02-27T19:17:34.953Z,11.50
2024-02-27T19:22:37.552Z,11.50
2024-02-27T19:27:39.866Z,11.50
2024-02-27T19:32:42.467Z,11.50
2024-02-27T19:37:44.888Z,11.60
2024-02-27T19:42:48.655Z,11.70
2024-02-27T19:47:50.856Z,11.70
2024-02-27T19:52:52.955Z,11.70
2024-02-27T19:57:56.636Z,11.70
2024-02-27T20:02:58.686Z,11.70
2024-02-27T20:08:01.869Z,11.70
2024-02-27T20:13:05.770Z,11.80
2024-02-27T20:18:09.460Z,11.80
2024-02-27T20:23:11.972Z,11.80
2024-02-27T20:28:13.972Z,11.80
2024-02-27T20:33:16.344Z,11.70
2024-02-27T20:38:19.146Z,11.70
2024-02-27T20:43:21.175Z,11.70
2024-02-27T20:48:23.433Z,11.60
2024-02-27T20:53:25.587Z,11.60
2024-02-27T20:58:27.637Z,11.60
2024-02-27T21:03:30.027Z,11.50
2024-02-27T21:08:32.080Z,11.50
2024-02-27T21:13:34.049Z,11.40
2024-02-27T21:18:36.138Z,11.40
2024-02-27T21:23:39.455Z,11.30
2024-02-27T21:28:41.387Z,11.20
2024-02-27T21:33:43.548Z,11.20
2024-02-27T21:38:45.560Z,11.20
2024-02-27T21:43:48.854Z,11.20
2024-02-27T21:48:50.944Z,11.20
2024-02-27T21:53:53.261Z,11.20
2024-02-27T21:58:56.016Z,11.10
2024-02-27T22:03:58.287Z,11.10
2024-02-27T22:09:00.531Z,11.20
2024-02-27T22:14:03.137Z,11.20
2024-02-27T22:19:05.907Z,11.20
2024-02-27T22:24:08.453Z,11.10
2024-02-27T22:29:10.842Z,11.10
2024-02-27T22:34:14.291Z,11.00
2024-02-27T22:39:16.310Z,11.00
2024-02-27T22:44:18.254Z,11.10
2024-02-27T22:49:20.476Z,11.00
2024-02-27T22:54:22.424Z,11.00
2024-02-27T22:59:24.721Z,11.00
2024-02-27T23:04:26.693Z,10.90
2024-02-27T23:09:28.965Z,10.90
2024-02-27T23:14:30.930Z,10.80
2024-02-27T23:19:34.153Z,10.80
2024-02-27T23:24:36.454Z,10.80
2024-02-27T23:29:38.454Z,10.70
2024-02-27T23:34:40.676Z,10.60
2024-02-27T23:39:42.587Z,10.60
2024-02-27T23:44:45.212Z,10.60
2024-02-27T23:49:47.311Z,10.50
2024-02-27T23:54:49.281Z,10.40
2024-02-27T23:59:52.775Z,10.20
